Terminal Aerodrome Forecast
Issued by NWS Blacksburg, VA

Current Version | Previous Version | Text Only | Print | Product List | Glossary Off
Versions: 1 2 3 4 5 6 7 8 9 10 11 12 13 14 15 16 17 18 19 20 21 22 23 24 25 26 27 28 29 30 31 32 33 34 35 36 37 38 39 40 41 42 43 44 45 46 47 48 49 50

000
FTUS41 KRNK 241740
TAFBLF
TAF
KBLF 241740Z 2418/2518 29012G22KT P6SM SCT007 OVC012
      TEMPO 2418/2421 5SM -SHSN OVC007
     FM250000 29010G20KT P6SM BKN018
     FM251200 27008KT P6SM BKN025 BKN200=

USA.gov is the U.S. government's official web portal to all federal, state and local government web resources and services.